sensor_id;sensor_type;location;lat;lon;timestamp;temperature;humidity
4207;DHT22;2117;47.972;7.830;2022-09-12T03:31:17;12.90;99.90
4207;DHT22;2117;47.972;7.830;2022-09-12T03:33:43;12.90;99.90
4207;DHT22;2117;47.972;7.830;2022-09-12T03:36:23;12.80;99.90
4207;DHT22;2117;47.972;7.830;2022-09-12T03:38:49;12.80;99.90
4207;DHT22;2117;47.972;7.830;2022-09-12T03:41:14;12.80;99.90
4207;DHT22;2117;47.972;7.830;2022-09-12T03:46:08;12.80;99.90
4207;DHT22;2117;47.972;7.830;2022-09-12T03:48:33;12.80;99.90
4207;DHT22;2117;47.972;7.830;2022-09-12T03:51:04;12.80;99.90
4207;DHT22;2117;47.972;7.830;2022-09-12T03:53:30;12.80;99.90
4207;DHT22;2117;47.972;7.830;2022-09-12T03:55:56;12.80;99.90
4207;DHT22;2117;47.972;7.830;2022-09-12T03:58:22;12.80;99.90
4207;DHT22;2117;47.972;7.830;2022-09-12T04:00:47;12.70;99.90
4207;DHT22;2117;47.972;7.830;2022-09-12T04:03:13;12.80;99.90
4207;DHT22;2117;47.972;7.830;2022-09-12T04:05:39;12.70;99.90
4207;DHT22;2117;47.972;7.830;2022-09-12T04:08:04;12.80;99.90
4207;DHT22;2117;47.972;7.830;2022-09-12T04:10:31;12.80;99.90
4207;DHT22;2117;47.972;7.830;2022-09-12T04:12:56;12.70;99.90
4207;DHT22;2117;47.972;7.830;2022-09-12T04:15:22;12.70;99.90
4207;DHT22;2117;47.972;7.830;2022-09-12T04:17:47;12.60;99.90
4207;DHT22;2117;47.972;7.830;2022-09-12T04:20:13;12.60;99.90
4207;DHT22;2117;47.972;7.830;2022-09-12T04:22:39;12.60;99.90
4207;DHT22;2117;47.972;7.830;2022-09-12T04:25:05;12.60;99.90
4207;DHT22;2117;47.972;7.830;2022-09-12T04:27:30;12.60;99.90
4207;DHT22;2117;47.972;7.830;2022-09-12T04:29:57;12.60;99.90
4207;DHT22;2117;47.972;7.830;2022-09-12T04:32:22;12.60;99.90
4207;DHT22;2117;47.972;7.830;2022-09-12T04:34:48;12.60;99.90
4207;DHT22;2117;47.972;7.830;2022-09-12T04:37:14;12.60;99.90
4207;DHT22;2117;47.972;7.830;2022-09-12T04:39:41;12.50;99.90
4207;DHT22;2117;47.972;7.830;2022-09-12T04:42:06;12.50;99.90
4207;DHT22;2117;47.972;7.830;2022-09-12T04:44:32;12.50;99.90
4207;DHT22;2117;47.972;7.830;2022-09-12T04:46:57;12.50;99.90
4207;DHT22;2117;47.972;7.830;2022-09-12T04:49:23;12.50;99.90
4207;DHT22;2117;47.972;7.830;2022-09-12T04:51:51;12.50;99.90
4207;DHT22;2117;47.972;7.830;2022-09-12T04:54:20;12.40;99.90
4207;DHT22;2117;47.972;7.830;2022-09-12T04:56:47;12.40;99.90
4207;DHT22;2117;47.972;7.830;2022-09-12T04:59:15;12.40;99.90
4207;DHT22;2117;47.972;7.830;2022-09-12T05:01:41;12.60;99.90
4207;DHT22;2117;47.972;7.830;2022-09-12T05:04:08;12.80;99.90
4207;DHT22;2117;47.972;7.830;2022-09-12T05:06:35;13.00;99.90
4207;DHT22;2117;47.972;7.830;2022-09-12T05:09:03;13.10;99.90
4207;DHT22;2117;47.972;7.830;2022-09-12T05:11:31;13.10;99.90
4207;DHT22;2117;47.972;7.830;2022-09-12T05:13:58;13.00;99.90
4207;DHT22;2117;47.972;7.830;2022-09-12T05:16:25;12.90;99.90
4207;DHT22;2117;47.972;7.830;2022-09-12T05:18:51;12.80;99.90
4207;DHT22;2117;47.972;7.830;2022-09-12T05:21:20;12.70;99.90
4207;DHT22;2117;47.972;7.830;2022-09-12T05:23:56;12.60;99.90
4207;DHT22;2117;47.972;7.830;2022-09-12T05:26:24;12.60;99.90
4207;DHT22;2117;47.972;7.830;2022-09-12T05:28:50;12.60;99.90
4207;DHT22;2117;47.972;7.830;2022-09-12T05:31:24;12.50;99.90
4207;DHT22;2117;47.972;7.830;2022-09-12T05:33:52;12.50;99.90
4207;DHT22;2117;47.972;7.830;2022-09-12T05:36:22;12.50;99.90
4207;DHT22;2117;47.972;7.830;2022-09-12T05:38:49;12.50;99.90
4207;DHT22;2117;47.972;7.830;2022-09-12T05:41:20;12.50;99.90
4207;DHT22;2117;47.972;7.830;2022-09-12T05:43:50;12.40;99.90
4207;DHT22;2117;47.972;7.830;2022-09-12T05:46:17;12.40;99.90
4207;DHT22;2117;47.972;7.830;2022-09-12T05:48:44;12.50;99.90
4207;DHT22;2117;47.972;7.830;2022-09-12T05:51:15;12.50;99.90
4207;DHT22;2117;47.972;7.830;2022-09-12T05:53:44;12.50;99.90
4207;DHT22;2117;47.972;7.830;2022-09-12T05:56:12;12.50;99.90
4207;DHT22;2117;47.972;7.830;2022-09-12T05:58:40;12.50;99.90
4207;DHT22;2117;47.972;7.830;2022-09-12T06:01:09;12.50;99.90
4207;DHT22;2117;47.972;7.830;2022-09-12T06:03:42;12.50;99.90
4207;DHT22;2117;47.972;7.830;2022-09-12T06:06:09;12.50;99.90
4207;DHT22;2117;47.972;7.830;2022-09-12T06:08:40;12.50;99.90
4207;DHT22;2117;47.972;7.830;2022-09-12T06:11:06;12.50;99.90
4207;DHT22;2117;47.972;7.830;2022-09-12T06:13:34;12.50;99.90
4207;DHT22;2117;47.972;7.830;2022-09-12T06:16:10;12.60;99.90
4207;DHT22;2117;47.972;7.830;2022-09-12T06:18:37;12.60;99.90
4207;DHT22;2117;47.972;7.830;2022-09-12T06:21:10;12.70;99.90
4207;DHT22;2117;47.972;7.830;2022-09-12T06:23:36;12.80;99.90
4207;DHT22;2117;47.972;7.830;2022-09-12T06:26:03;12.80;99.90
4207;DHT22;2117;47.972;7.830;2022-09-12T06:28:30;12.80;99.90
4207;DHT22;2117;47.972;7.830;2022-09-12T06:31:04;12.80;99.90
4207;DHT22;2117;47.972;7.830;2022-09-12T06:33:31;13.00;99.90
4207;DHT22;2117;47.972;7.830;2022-09-12T06:36:10;13.00;99.90
4207;DHT22;2117;47.972;7.830;2022-09-12T06:38:36;13.00;99.90
4207;DHT22;2117;47.972;7.830;2022-09-12T06:41:04;13.10;99.90
4207;DHT22;2117;47.972;7.830;2022-09-12T06:43:32;13.10;99.90
4207;DHT22;2117;47.972;7.830;2022-09-12T06:45:58;13.20;99.90
4207;DHT22;2117;47.972;7.830;2022-09-12T06:48:23;13.20;99.90
4207;DHT22;2117;47.972;7.830;2022-09-12T06:51:01;13.20;99.90
4207;DHT22;2117;47.972;7.830;2022-09-12T06:53:28;13.30;99.90
4207;DHT22;2117;47.972;7.830;2022-09-12T06:56:01;13.30;99.90
4207;DHT22;2117;47.972;7.830;2022-09-12T06:58:28;13.40;99.90
4207;DHT22;2117;47.972;7.830;2022-09-12T07:03:31;13.60;99.90
4207;DHT22;2117;47.972;7.830;2022-09-12T07:06:11;13.60;99.90
4207;DHT22;2117;47.972;7.830;2022-09-12T07:08:38;13.70;99.90
4207;DHT22;2117;47.972;7.830;2022-09-12T07:11:14;13.80;99.90
4207;DHT22;2117;47.972;7.830;2022-09-12T07:13:42;13.90;99.90
4207;DHT22;2117;47.972;7.830;2022-09-12T07:16:09;13.90;99.90
4207;DHT22;2117;47.972;7.830;2022-09-12T07:18:36;14.00;99.90
4207;DHT22;2117;47.972;7.830;2022-09-12T07:21:13;14.10;99.90
4207;DHT22;2117;47.972;7.830;2022-09-12T07:23:40;14.30;99.90
4207;DHT22;2117;47.972;7.830;2022-09-12T07:26:08;14.30;99.90
4207;DHT22;2117;47.972;7.830;2022-09-12T07:28:34;14.40;99.90
4207;DHT22;2117;47.972;7.830;2022-09-12T07:31:12;14.50;99.90
4207;DHT22;2117;47.972;7.830;2022-09-12T07:33:39;14.70;99.90
4207;DHT22;2117;47.972;7.830;2022-09-12T07:36:23;14.70;99.90
4207;DHT22;2117;47.972;7.830;2022-09-12T07:38:53;14.80;99.90
4207;DHT22;2117;47.972;7.830;2022-09-12T07:41:24;14.90;99.90
4207;DHT22;2117;47.972;7.830;2022-09-12T07:43:55;15.10;99.90
4207;DHT22;2117;47.972;7.830;2022-09-12T07:46:21;15.10;99.90
4207;DHT22;2117;47.972;7.830;2022-09-12T07:48:51;15.20;99.90
4207;DHT22;2117;47.972;7.830;2022-09-12T07:51:17;15.30;99.90
4207;DHT22;2117;47.972;7.830;2022-09-12T07:53:43;15.40;99.90
4207;DHT22;2117;47.972;7.830;2022-09-12T07:56:10;15.40;99.90
4207;DHT22;2117;47.972;7.830;2022-09-12T07:58:37;15.50;99.90
4207;DHT22;2117;47.972;7.830;2022-09-12T08:01:08;15.70;99.90
4207;DHT22;2117;47.972;7.830;2022-09-12T08:03:34;15.70;99.90
4207;DHT22;2117;47.972;7.830;2022-09-12T08:06:08;15.90;99.90
4207;DHT22;2117;47.972;7.830;2022-09-12T08:08:35;16.00;99.90
4207;DHT22;2117;47.972;7.830;2022-09-12T08:11:07;16.10;99.90
4207;DHT22;2117;47.972;7.830;2022-09-12T08:13:34;16.20;99.90
4207;DHT22;2117;47.972;7.830;2022-09-12T08:16:03;16.30;99.90
4207;DHT22;2117;47.972;7.830;2022-09-12T08:18:29;16.40;99.90
4207;DHT22;2117;47.972;7.830;2022-09-12T08:20:58;16.40;99.90
4207;DHT22;2117;47.972;7.830;2022-09-12T08:23:24;16.50;99.90
4207;DHT22;2117;47.972;7.830;2022-09-12T08:25:54;16.60;99.90
4207;DHT22;2117;47.972;7.830;2022-09-12T08:28:19;16.60;99.90
4207;DHT22;2117;47.972;7.830;2022-09-12T08:30:45;16.70;99.90
4207;DHT22;2117;47.972;7.830;2022-09-12T08:33:10;16.80;99.90
4207;DHT22;2117;47.972;7.830;2022-09-12T08:35:36;17.00;99.90
4207;DHT22;2117;47.972;7.830;2022-09-12T08:38:01;17.20;99.90
4207;DHT22;2117;47.972;7.830;2022-09-12T08:40:27;17.40;99.90
4207;DHT22;2117;47.972;7.830;2022-09-12T08:43:21;17.50;99.90
4207;DHT22;2117;47.972;7.830;2022-09-12T08:46:01;17.50;99.90
4207;DHT22;2117;47.972;7.830;2022-09-12T08:48:28;17.50;99.90
4207;DHT22;2117;47.972;7.830;2022-09-12T08:50:54;17.60;99.90
4207;DHT22;2117;47.972;7.830;2022-09-12T08:53:23;17.60;99.90
4207;DHT22;2117;47.972;7.830;2022-09-12T08:55:51;17.70;99.90
4207;DHT22;2117;47.972;7.830;2022-09-12T08:58:22;17.60;99.90
4207;DHT22;2117;47.972;7.830;2022-09-12T09:09:18;18.00;99.90
4207;DHT22;2117;47.972;7.830;2022-09-12T09:12:15;18.10;99.90
4207;DHT22;2117;47.972;7.830;2022-09-12T09:14:57;18.10;99.90
4207;DHT22;2117;47.972;7.830;2022-09-12T09:17:33;18.30;99.90
4207;DHT22;2117;47.972;7.830;2022-09-12T09:20:18;18.40;99.90
4207;DHT22;2117;47.972;7.830;2022-09-12T09:22:53;18.40;99.90
4207;DHT22;2117;47.972;7.830;2022-09-12T09:25:24;18.50;99.90
4207;DHT22;2117;47.972;7.830;2022-09-12T09:28:18;18.60;99.90
4207;DHT22;2117;47.972;7.830;2022-09-12T09:30:45;18.70;99.90
4207;DHT22;2117;47.972;7.830;2022-09-12T09:33:23;18.70;99.90
4207;DHT22;2117;47.972;7.830;2022-09-12T09:36:01;18.80;99.90
4207;DHT22;2117;47.972;7.830;2022-09-12T09:38:53;18.90;99.90
4207;DHT22;2117;47.972;7.830;2022-09-12T09:43:52;19.10;99.90
4207;DHT22;2117;47.972;7.830;2022-09-12T09:46:18;19.20;99.90
4207;DHT22;2117;47.972;7.830;2022-09-12T09:48:46;19.30;99.90
4207;DHT22;2117;47.972;7.830;2022-09-12T09:51:16;19.50;99.90
4207;DHT22;2117;47.972;7.830;2022-09-12T09:53:53;19.50;99.90
4207;DHT22;2117;47.972;7.830;2022-09-12T09:56:36;19.60;99.90
4207;DHT22;2117;47.972;7.830;2022-09-12T09:59:17;19.70;99.90
4207;DHT22;2117;47.972;7.830;2022-09-12T10:04:21;19.80;99.90
4207;DHT22;2117;47.972;7.830;2022-09-12T10:06:47;19.90;99.90
4207;DHT22;2117;47.972;7.830;2022-09-12T10:09:21;20.00;99.90
4207;DHT22;2117;47.972;7.830;2022-09-12T10:11:49;20.10;99.90
4207;DHT22;2117;47.972;7.830;2022-09-12T10:14:34;20.20;99.90
4207;DHT22;2117;47.972;7.830;2022-09-12T10:17:04;20.30;99.90
4207;DHT22;2117;47.972;7.830;2022-09-12T10:19:46;20.30;99.90
4207;DHT22;2117;47.972;7.830;2022-09-12T10:22:17;20.40;99.90
4207;DHT22;2117;47.972;7.830;2022-09-12T10:24:48;20.50;99.90
4207;DHT22;2117;47.972;7.830;2022-09-12T10:27:22;20.50;99.90
4207;DHT22;2117;47.972;7.830;2022-09-12T10:29:54;20.50;99.90
4207;DHT22;2117;47.972;7.830;2022-09-12T10:32:28;20.50;99.90
4207;DHT22;2117;47.972;7.830;2022-09-12T10:34:58;20.80;99.90
4207;DHT22;2117;47.972;7.830;2022-09-12T10:37:33;20.90;99.90
4207;DHT22;2117;47.972;7.830;2022-09-12T10:40:00;21.00;99.90
4207;DHT22;2117;47.972;7.830;2022-09-12T10:42:47;21.20;99.90
4207;DHT22;2117;47.972;7.830;2022-09-12T10:45:25;21.30;99.90
4207;DHT22;2117;47.972;7.830;2022-09-12T10:47:52;21.50;99.90
4207;DHT22;2117;47.972;7.830;2022-09-12T10:50:30;21.70;99.90
4207;DHT22;2117;47.972;7.830;2022-09-12T10:53:19;21.90;99.90
4207;DHT22;2117;47.972;7.830;2022-09-12T10:56:08;22.10;99.90
4207;DHT22;2117;47.972;7.830;2022-09-12T10:58:54;22.30;99.90
4207;DHT22;2117;47.972;7.830;2022-09-12T11:01:37;22.40;99.90
4207;DHT22;2117;47.972;7.830;2022-09-12T11:04:40;22.70;99.90
4207;DHT22;2117;47.972;7.830;2022-09-12T11:07:23;22.90;99.90
4207;DHT22;2117;47.972;7.830;2022-09-12T11:31:45;25.00;99.90
4207;DHT22;2117;47.972;7.830;2022-09-12T11:34:20;25.40;99.90
4207;DHT22;2117;47.972;7.830;2022-09-12T11:39:25;25.80;99.90
4207;DHT22;2117;47.972;7.830;2022-09-12T11:41:59;26.00;99.90
4207;DHT22;2117;47.972;7.830;2022-09-12T11:44:40;26.20;99.90
4207;DHT22;2117;47.972;7.830;2022-09-12T11:47:11;26.70;99.90
4207;DHT22;2117;47.972;7.830;2022-09-12T11:49:42;27.00;99.90
4207;DHT22;2117;47.972;7.830;2022-09-12T11:52:15;27.10;99.90
4207;DHT22;2117;47.972;7.830;2022-09-12T11:54:48;28.30;99.90
4207;DHT22;2117;47.972;7.830;2022-09-12T12:02:31;29.40;99.90
4207;DHT22;2117;47.972;7.830;2022-09-12T12:05:14;30.00;99.90
4207;DHT22;2117;47.972;7.830;2022-09-12T12:07:46;30.40;99.50
4207;DHT22;2117;47.972;7.830;2022-09-12T12:10:26;30.70;99.40
4207;DHT22;2117;47.972;7.830;2022-09-12T12:12:56;31.10;99.00
4207;DHT22;2117;47.972;7.830;2022-09-12T12:15:23;31.50;99.30
4207;DHT22;2117;47.972;7.830;2022-09-12T12:18:06;31.80;97.90
4207;DHT22;2117;47.972;7.830;2022-09-12T12:20:32;32.10;95.90
4207;DHT22;2117;47.972;7.830;2022-09-12T12:22:58;32.40;95.40
4207;DHT22;2117;47.972;7.830;2022-09-12T12:25:54;32.50;94.40
4207;DHT22;2117;47.972;7.830;2022-09-12T12:28:59;32.70;93.00
4207;DHT22;2117;47.972;7.830;2022-09-12T12:31:24;32.70;93.40
4207;DHT22;2117;47.972;7.830;2022-09-12T12:33:53;32.70;93.90
4207;DHT22;2117;47.972;7.830;2022-09-12T12:36:31;32.80;93.20
4207;DHT22;2117;47.972;7.830;2022-09-12T12:38:58;32.80;94.40
4207;DHT22;2117;47.972;7.830;2022-09-12T12:43:51;33.30;92.40
4207;DHT22;2117;47.972;7.830;2022-09-12T12:46:18;33.50;91.30
4207;DHT22;2117;47.972;7.830;2022-09-12T12:54:00;33.80;92.00
4207;DHT22;2117;47.972;7.830;2022-09-12T12:58:59;33.70;90.40
4207;DHT22;2117;47.972;7.830;2022-09-12T13:01:26;33.60;89.30
4207;DHT22;2117;47.972;7.830;2022-09-12T13:06:43;33.70;89.70
4207;DHT22;2117;47.972;7.830;2022-09-12T13:09:44;33.70;89.80
4207;DHT22;2117;47.972;7.830;2022-09-12T13:12:21;34.00;89.70
4207;DHT22;2117;47.972;7.830;2022-09-12T13:14:59;34.10;90.00
4207;DHT22;2117;47.972;7.830;2022-09-12T13:17:32;33.80;91.40
4207;DHT22;2117;47.972;7.830;2022-09-12T13:20:13;34.00;90.20
4207;DHT22;2117;47.972;7.830;2022-09-12T13:22:46;34.00;90.00
4207;DHT22;2117;47.972;7.830;2022-09-12T13:25:31;33.20;86.60
4207;DHT22;2117;47.972;7.830;2022-09-12T13:30:41;33.20;90.00
4207;DHT22;2117;47.972;7.830;2022-09-12T13:41:39;33.80;87.10
4207;DHT22;2117;47.972;7.830;2022-09-12T13:44:11;34.00;87.10
4207;DHT22;2117;47.972;7.830;2022-09-12T13:46:39;34.00;85.00
4207;DHT22;2117;47.972;7.830;2022-09-12T13:49:42;34.10;87.20
4207;DHT22;2117;47.972;7.830;2022-09-12T13:52:04;34.20;84.70
4207;DHT22;2117;47.972;7.830;2022-09-12T13:54:32;34.20;85.90
4207;DHT22;2117;47.972;7.830;2022-09-12T13:56:58;34.20;84.80
4207;DHT22;2117;47.972;7.830;2022-09-12T13:59:24;34.50;80.90
4207;DHT22;2117;47.972;7.830;2022-09-12T14:01:50;34.40;81.70
4207;DHT22;2117;47.972;7.830;2022-09-12T14:04:17;34.10;79.50
4207;DHT22;2117;47.972;7.830;2022-09-12T14:07:08;34.30;81.40
4207;DHT22;2117;47.972;7.830;2022-09-12T14:09:41;34.30;80.40
4207;DHT22;2117;47.972;7.830;2022-09-12T14:12:33;34.20;80.70
4207;DHT22;2117;47.972;7.830;2022-09-12T14:15:00;34.00;81.50
4207;DHT22;2117;47.972;7.830;2022-09-12T14:17:34;34.10;78.80
4207;DHT22;2117;47.972;7.830;2022-09-12T14:20:28;33.70;79.00
4207;DHT22;2117;47.972;7.830;2022-09-12T14:23:00;33.50;79.90
4207;DHT22;2117;47.972;7.830;2022-09-12T14:25:28;33.70;80.50
4207;DHT22;2117;47.972;7.830;2022-09-12T14:27:56;33.90;81.00
4207;DHT22;2117;47.972;7.830;2022-09-12T14:30:25;34.00;81.40
4207;DHT22;2117;47.972;7.830;2022-09-12T14:35:35;33.90;78.60
4207;DHT22;2117;47.972;7.830;2022-09-12T14:40:42;34.10;80.20
4207;DHT22;2117;47.972;7.830;2022-09-12T14:43:29;34.20;79.40
4207;DHT22;2117;47.972;7.830;2022-09-12T14:46:02;34.00;76.10
4207;DHT22;2117;47.972;7.830;2022-09-12T14:48:34;33.80;74.30
4207;DHT22;2117;47.972;7.830;2022-09-12T14:51:01;33.90;78.60
4207;DHT22;2117;47.972;7.830;2022-09-12T14:53:32;33.90;79.50
4207;DHT22;2117;47.972;7.830;2022-09-12T14:56:15;34.10;78.40
4207;DHT22;2117;47.972;7.830;2022-09-12T14:58:41;34.10;75.50
4207;DHT22;2117;47.972;7.830;2022-09-12T15:03:53;34.30;75.50
4207;DHT22;2117;47.972;7.830;2022-09-12T15:06:34;34.20;74.30
4207;DHT22;2117;47.972;7.830;2022-09-12T15:09:06;34.10;75.50
4207;DHT22;2117;47.972;7.830;2022-09-12T15:11:32;33.80;76.60
4207;DHT22;2117;47.972;7.830;2022-09-12T15:14:06;33.50;75.90
4207;DHT22;2117;47.972;7.830;2022-09-12T15:16:36;33.20;76.10
4207;DHT22;2117;47.972;7.830;2022-09-12T15:19:02;33.00;77.40
4207;DHT22;2117;47.972;7.830;2022-09-12T15:21:27;32.90;79.10
4207;DHT22;2117;47.972;7.830;2022-09-12T15:23:53;32.90;80.50
4207;DHT22;2117;47.972;7.830;2022-09-12T15:26:23;32.60;77.60
4207;DHT22;2117;47.972;7.830;2022-09-12T15:28:52;32.10;79.20
4207;DHT22;2117;47.972;7.830;2022-09-12T15:31:28;31.90;80.10
4207;DHT22;2117;47.972;7.830;2022-09-12T15:33:56;31.70;80.90
4207;DHT22;2117;47.972;7.830;2022-09-12T15:36:23;31.40;81.60
4207;DHT22;2117;47.972;7.830;2022-09-12T15:38:49;31.00;82.40
4207;DHT22;2117;47.972;7.830;2022-09-12T15:41:30;30.70;85.00
4207;DHT22;2117;47.972;7.830;2022-09-12T15:43:56;30.30;81.10
4207;DHT22;2117;47.972;7.830;2022-09-12T15:46:21;29.50;83.80
4207;DHT22;2117;47.972;7.830;2022-09-12T15:48:47;29.50;84.80
4207;DHT22;2117;47.972;7.830;2022-09-12T15:51:18;29.30;87.10
4207;DHT22;2117;47.972;7.830;2022-09-12T15:53:45;29.00;88.40
4207;DHT22;2117;47.972;7.830;2022-09-12T15:56:13;28.80;87.50
4207;DHT22;2117;47.972;7.830;2022-09-12T15:58:39;28.60;87.60
4207;DHT22;2117;47.972;7.830;2022-09-12T16:01:05;28.30;87.00
4207;DHT22;2117;47.972;7.830;2022-09-12T16:03:30;28.20;89.10
4207;DHT22;2117;47.972;7.830;2022-09-12T16:06:01;28.00;89.00
4207;DHT22;2117;47.972;7.830;2022-09-12T16:08:28;27.90;88.00
4207;DHT22;2117;47.972;7.830;2022-09-12T16:10:58;27.70;86.10
4207;DHT22;2117;47.972;7.830;2022-09-12T16:13:24;27.40;87.70
4207;DHT22;2117;47.972;7.830;2022-09-12T16:15:50;27.20;89.10
4207;DHT22;2117;47.972;7.830;2022-09-12T16:18:17;27.10;89.60
4207;DHT22;2117;47.972;7.830;2022-09-12T16:20:43;27.00;91.00
4207;DHT22;2117;47.972;7.830;2022-09-12T16:23:10;27.00;90.60
4207;DHT22;2117;47.972;7.830;2022-09-12T16:25:37;26.80;90.50
4207;DHT22;2117;47.972;7.830;2022-09-12T16:28:03;26.60;89.90
4207;DHT22;2117;47.972;7.830;2022-09-12T16:30:31;26.50;88.40
4207;DHT22;2117;47.972;7.830;2022-09-12T16:32:57;26.40;88.80
4207;DHT22;2117;47.972;7.830;2022-09-12T16:35:22;26.40;89.10
4207;DHT22;2117;47.972;7.830;2022-09-12T16:37:48;26.30;88.60
4207;DHT22;2117;47.972;7.830;2022-09-12T16:42:42;26.20;88.90
4207;DHT22;2117;47.972;7.830;2022-09-12T16:45:08;26.10;90.40
4207;DHT22;2117;47.972;7.830;2022-09-12T16:47:34;26.00;90.60
4207;DHT22;2117;47.972;7.830;2022-09-12T16:49:59;25.90;91.30
4207;DHT22;2117;47.972;7.830;2022-09-12T16:52:25;25.80;91.10
4207;DHT22;2117;47.972;7.830;2022-09-12T16:54:51;25.70;91.20
4207;DHT22;2117;47.972;7.830;2022-09-12T16:57:17;25.60;91.30
4207;DHT22;2117;47.972;7.830;2022-09-12T16:59:42;25.60;91.70
4207;DHT22;2117;47.972;7.830;2022-09-12T17:02:12;25.50;91.90
4207;DHT22;2117;47.972;7.830;2022-09-12T17:04:38;25.30;92.60
4207;DHT22;2117;47.972;7.830;2022-09-12T17:07:03;25.20;93.70
4207;DHT22;2117;47.972;7.830;2022-09-12T17:09:29;25.20;94.40
4207;DHT22;2117;47.972;7.830;2022-09-12T17:11:55;25.00;94.30
4207;DHT22;2117;47.972;7.830;2022-09-12T17:14:22;24.90;94.80
4207;DHT22;2117;47.972;7.830;2022-09-12T17:16:48;24.80;94.50
4207;DHT22;2117;47.972;7.830;2022-09-12T17:19:20;24.70;94.90
4207;DHT22;2117;47.972;7.830;2022-09-12T17:21:46;24.60;95.30
4207;DHT22;2117;47.972;7.830;2022-09-12T17:24:15;24.50;95.90
4207;DHT22;2117;47.972;7.830;2022-09-12T17:26:41;24.30;96.30
4207;DHT22;2117;47.972;7.830;2022-09-12T17:29:06;24.20;96.90
4207;DHT22;2117;47.972;7.830;2022-09-12T17:31:32;24.10;97.20
4207;DHT22;2117;47.972;7.830;2022-09-12T17:33:58;24.00;97.50
4207;DHT22;2117;47.972;7.830;2022-09-12T17:36:25;23.80;97.60
4207;DHT22;2117;47.972;7.830;2022-09-12T17:38:51;23.70;98.00
4207;DHT22;2117;47.972;7.830;2022-09-12T17:41:20;23.50;98.10
4207;DHT22;2117;47.972;7.830;2022-09-12T17:43:50;23.40;98.50
4207;DHT22;2117;47.972;7.830;2022-09-12T17:46:19;23.20;99.00
4207;DHT22;2117;47.972;7.830;2022-09-12T17:48:56;23.10;99.20
4207;DHT22;2117;47.972;7.830;2022-09-12T17:51:24;23.00;99.50
4207;DHT22;2117;47.972;7.830;2022-09-12T17:54:01;22.80;99.40
4207;DHT22;2117;47.972;7.830;2022-09-12T17:56:29;22.60;99.60
4207;DHT22;2117;47.972;7.830;2022-09-12T17:58:56;22.50;99.60
4207;DHT22;2117;47.972;7.830;2022-09-12T18:01:22;22.40;99.40
4207;DHT22;2117;47.972;7.830;2022-09-12T18:04:07;22.20;99.20
4207;DHT22;2117;47.972;7.830;2022-09-12T18:06:32;22.10;99.70
4207;DHT22;2117;47.972;7.830;2022-09-12T18:09:00;22.00;99.90
4207;DHT22;2117;47.972;7.830;2022-09-12T18:11:27;22.00;99.50
4207;DHT22;2117;47.972;7.830;2022-09-12T18:13:53;21.90;99.60
4207;DHT22;2117;47.972;7.830;2022-09-12T18:16:18;21.70;99.80
4207;DHT22;2117;47.972;7.830;2022-09-12T18:18:44;21.60;99.90
4207;DHT22;2117;47.972;7.830;2022-09-12T18:21:10;21.50;99.80
4207;DHT22;2117;47.972;7.830;2022-09-12T18:23:36;21.40;99.90
4207;DHT22;2117;47.972;7.830;2022-09-12T18:26:05;21.30;99.90
4207;DHT22;2117;47.972;7.830;2022-09-12T18:28:36;21.20;99.60
4207;DHT22;2117;47.972;7.830;2022-09-12T18:31:02;21.10;99.50
4207;DHT22;2117;47.972;7.830;2022-09-12T18:33:28;21.00;99.50
4207;DHT22;2117;47.972;7.830;2022-09-12T18:35:54;20.90;99.90
4207;DHT22;2117;47.972;7.830;2022-09-12T18:38:19;20.80;99.90
4207;DHT22;2117;47.972;7.830;2022-09-12T18:40:45;20.70;99.90
4207;DHT22;2117;47.972;7.830;2022-09-12T18:43:11;20.70;99.90
4207;DHT22;2117;47.972;7.830;2022-09-12T18:45:37;20.50;99.90
4207;DHT22;2117;47.972;7.830;2022-09-12T18:48:02;20.50;99.90
4207;DHT22;2117;47.972;7.830;2022-09-12T18:50:30;20.30;99.90
4207;DHT22;2117;47.972;7.830;2022-09-12T18:52:56;20.30;99.90
4207;DHT22;2117;47.972;7.830;2022-09-12T18:55:21;20.20;99.90
4207;DHT22;2117;47.972;7.830;2022-09-12T18:57:48;20.10;99.90
4207;DHT22;2117;47.972;7.830;2022-09-12T19:00:15;20.00;99.90
4207;DHT22;2117;47.972;7.830;2022-09-12T19:02:41;20.00;99.90
4207;DHT22;2117;47.972;7.830;2022-09-12T19:05:06;19.90;99.90
4207;DHT22;2117;47.972;7.830;2022-09-12T19:07:32;19.80;99.90
4207;DHT22;2117;47.972;7.830;2022-09-12T19:09:57;19.70;99.90
4207;DHT22;2117;47.972;7.830;2022-09-12T19:12:23;19.70;99.90
4207;DHT22;2117;47.972;7.830;2022-09-12T19:14:49;19.60;99.90
4207;DHT22;2117;47.972;7.830;2022-09-12T19:17:14;19.50;99.90
4207;DHT22;2117;47.972;7.830;2022-09-12T19:19:41;19.40;99.90
4207;DHT22;2117;47.972;7.830;2022-09-12T19:22:07;19.30;99.90
4207;DHT22;2117;47.972;7.830;2022-09-12T19:24:32;19.20;99.90
4207;DHT22;2117;47.972;7.830;2022-09-12T19:26:58;19.20;99.90
4207;DHT22;2117;47.972;7.830;2022-09-12T19:29:23;19.10;99.90
4207;DHT22;2117;47.972;7.830;2022-09-12T19:31:49;19.10;99.90
4207;DHT22;2117;47.972;7.830;2022-09-12T19:34:15;19.00;99.90
4207;DHT22;2117;47.972;7.830;2022-09-12T19:36:40;18.90;99.90
4207;DHT22;2117;47.972;7.830;2022-09-12T19:39:07;18.80;99.90
4207;DHT22;2117;47.972;7.830;2022-09-12T19:41:33;18.80;99.90
4207;DHT22;2117;47.972;7.830;2022-09-12T19:43:59;18.80;99.90
4207;DHT22;2117;47.972;7.830;2022-09-12T19:46:25;18.70;99.90
4207;DHT22;2117;47.972;7.830;2022-09-12T19:48:52;18.60;99.90
4207;DHT22;2117;47.972;7.830;2022-09-12T19:51:18;18.60;99.90
4207;DHT22;2117;47.972;7.830;2022-09-12T19:53:45;18.50;99.90
4207;DHT22;2117;47.972;7.830;2022-09-12T19:56:13;18.50;99.90
4207;DHT22;2117;47.972;7.830;2022-09-12T19:58:43;18.50;99.90
4207;DHT22;2117;47.972;7.830;2022-09-12T20:01:15;18.40;99.90
4207;DHT22;2117;47.972;7.830;2022-09-12T20:03:43;18.30;99.90
4207;DHT22;2117;47.972;7.830;2022-09-12T20:06:12;18.30;99.90
4207;DHT22;2117;47.972;7.830;2022-09-12T20:08:38;18.30;99.90
4207;DHT22;2117;47.972;7.830;2022-09-12T20:11:11;18.20;99.90
4207;DHT22;2117;47.972;7.830;2022-09-12T20:13:38;18.20;99.90
4207;DHT22;2117;47.972;7.830;2022-09-12T20:18:35;18.00;99.90
4207;DHT22;2117;47.972;7.830;2022-09-12T20:21:16;18.00;99.90
4207;DHT22;2117;47.972;7.830;2022-09-12T20:23:42;17.90;99.90
4207;DHT22;2117;47.972;7.830;2022-09-12T20:26:08;17.80;99.90
4207;DHT22;2117;47.972;7.830;2022-09-12T20:28:37;17.80;99.90
4207;DHT22;2117;47.972;7.830;2022-09-12T20:31:12;17.70;99.90
4207;DHT22;2117;47.972;7.830;2022-09-12T20:33:38;17.70;99.90
4207;DHT22;2117;47.972;7.830;2022-09-12T20:36:07;17.60;99.90
4207;DHT22;2117;47.972;7.830;2022-09-12T20:38:33;17.60;99.90
4207;DHT22;2117;47.972;7.830;2022-09-12T20:41:03;17.60;99.90
4207;DHT22;2117;47.972;7.830;2022-09-12T20:43:28;17.50;99.90
4207;DHT22;2117;47.972;7.830;2022-09-12T20:45:54;17.50;99.90
4207;DHT22;2117;47.972;7.830;2022-09-12T20:48:20;17.40;99.90
4207;DHT22;2117;47.972;7.830;2022-09-12T20:50:46;17.40;99.90
4207;DHT22;2117;47.972;7.830;2022-09-12T20:53:11;17.40;99.90
4207;DHT22;2117;47.972;7.830;2022-09-12T20:55:37;17.30;99.90
4207;DHT22;2117;47.972;7.830;2022-09-12T20:58:02;17.30;99.90
4207;DHT22;2117;47.972;7.830;2022-09-12T21:00:28;17.20;99.90
4207;DHT22;2117;47.972;7.830;2022-09-12T21:02:54;17.10;99.90
4207;DHT22;2117;47.972;7.830;2022-09-12T21:05:21;17.10;99.90
4207;DHT22;2117;47.972;7.830;2022-09-12T21:07:46;17.00;99.90
4207;DHT22;2117;47.972;7.830;2022-09-12T21:10:12;17.00;99.90
4207;DHT22;2117;47.972;7.830;2022-09-12T21:12:38;17.00;99.90
4207;DHT22;2117;47.972;7.830;2022-09-12T21:15:04;16.90;99.90